Coulee Dam, Washington
Current Conditions -  °F | °C
As of 7:11 AM on Friday 31 Oct 2014 (Local Time) from KOMK Reporting Station
Light Rain Light Rain  
Wind Chill: 46°   Ceiling: 800
Heat Index: 48°   Visibility: 3mi
Dew Point: 47°   Wind: 5mph
Humidity: 96%   Direction: 200°SSW
Pressure: 29.73"   Gusts: NA
Location:  47.97°N, 118.98°W
Report Text: KOMK 311411Z AUTO 20004KT 3SM -RA BR BKN008 BKN020 OVC031 09/08 A2973 RMK AO2 P0000 T00890083
Loading
Personal Weather Stations






























Interactive Weather Map
Tropical Storm Tracking
New forecast layout! Learn more

10-Day Weather Forecast

Advertisements
Track Severe Weather on mobile